AFL847 UUEE-SABE
Flight info
| Callsign | AFL847 |
|---|---|
| Flight time | N/A |
| Altitude | 30000 |
| Route | LIDRI3J LIDRI T781 REPNU N858 VEPIS T526 RUHAL M863 MNS L999 PINUG T52 RAVOK L856 TOSPO/N0491F300 Z186 SKARY DCT MIKOV DCT LIMRA DCT DETSA/N0497F310 DCT NEVNI DCT BORDI DCT PADKO UM984 DIVKO G7 MAMES M984 BISBA DCT RODRA M985 MGA N851 VJF L82 RUNAX UL82 IBALU/N0496F330 UN857 TERTO N857 DEREV/N0497F340 N857 GUNET UN857 ERETU/N0499F360 UN857 IRUMI/N0493F380 UN857 NELOX UZ53 UMRUD UN741 PAPIX PAPIX2R |
| Aircraft | B772/H-SDE2E3FGHIJ5LORVWXY/LB1D1 |
Departure
| Time | N/A |
|---|---|
| Airport | Sheremetyevo International Airport (UUEE) |
Arrival
| Time | 2026-05-04 13:39 |
|---|---|
| Airport | Aeroparque Jorge Newbery (SABE) |
| Time | Latitude | Longitude | Altitude | Speed | Heading |
|---|---|---|---|---|---|
| 2026-05-04 10:04 | -18.19523 | -40.07580 | 38154 ft | 458 kts | 213° |
| 2026-05-04 10:04 | -18.25090 | -40.10744 | 38161 ft | 458 kts | 213° |
| 2026-05-04 10:05 | -18.30696 | -40.13935 | 38148 ft | 458 kts | 213° |
| 2026-05-04 10:05 | -18.36301 | -40.17126 | 38165 ft | 458 kts | 214° |
| 2026-05-04 10:06 | -18.41910 | -40.20323 | 38164 ft | 458 kts | 214° |
| 2026-05-04 10:06 | -18.47512 | -40.23517 | 38168 ft | 458 kts | 214° |
| 2026-05-04 10:08 | -18.67054 | -40.34680 | 38174 ft | 457 kts | 214° |
| 2026-05-04 10:08 | -18.72637 | -40.37875 | 38174 ft | 456 kts | 214° |
| 2026-05-04 10:09 | -18.78217 | -40.41070 | 38165 ft | 456 kts | 214° |
| 2026-05-04 10:09 | -18.83788 | -40.44263 | 38186 ft | 455 kts | 214° |
| 2026-05-04 10:10 | -18.89361 | -40.47459 | 38177 ft | 455 kts | 214° |
| 2026-05-04 10:10 | -18.94920 | -40.50650 | 38172 ft | 454 kts | 214° |
| 2026-05-04 10:11 | -19.00469 | -40.53836 | 38175 ft | 454 kts | 214° |
| 2026-05-04 10:11 | -19.06011 | -40.57023 | 38185 ft | 454 kts | 214° |
| 2026-05-04 10:12 | -19.11515 | -40.60189 | 38184 ft | 453 kts | 214° |
| 2026-05-04 10:12 | -19.17053 | -40.63377 | 38183 ft | 453 kts | 215° |
| 2026-05-04 10:13 | -19.22586 | -40.66565 | 38184 ft | 453 kts | 214° |
| 2026-05-04 10:13 | -19.28113 | -40.69752 | 38190 ft | 453 kts | 215° |
| 2026-05-04 10:14 | -19.33642 | -40.72943 | 38182 ft | 453 kts | 215° |
| 2026-05-04 10:16 | -19.55722 | -40.85710 | 38194 ft | 451 kts | 215° |
| 2026-05-04 10:16 | -19.61246 | -40.88909 | 38425 ft | 454 kts | 215° |
| 2026-05-04 10:17 | -19.64021 | -40.90512 | 38679 ft | 454 kts | 215° |
| 2026-05-04 10:17 | -19.66789 | -40.92110 | 38956 ft | 452 kts | 215° |
| 2026-05-04 10:19 | -19.85982 | -41.03230 | 40189 ft | 451 kts | 215° |
| 2026-05-04 10:19 | -19.88729 | -41.04833 | 40190 ft | 450 kts | 215° |
| 2026-05-04 10:19 | -19.94181 | -41.08041 | 40209 ft | 445 kts | 216° |
| 2026-05-04 10:20 | -19.99575 | -41.11223 | 40209 ft | 442 kts | 216° |
| 2026-05-04 10:20 | -20.04935 | -41.14385 | 40216 ft | 440 kts | 216° |
| 2026-05-04 10:21 | -20.10249 | -41.17522 | 40229 ft | 440 kts | 216° |
| 2026-05-04 10:21 | -20.15604 | -41.20681 | 40231 ft | 440 kts | 216° |
| 2026-05-04 10:22 | -20.23638 | -41.25414 | 40249 ft | 441 kts | 216° |
| 2026-05-04 10:23 | -20.29027 | -41.28597 | 40251 ft | 444 kts | 216° |
| 2026-05-04 10:25 | -20.50750 | -41.41436 | 40246 ft | 446 kts | 216° |
| 2026-05-04 10:25 | -20.56176 | -41.44626 | 40279 ft | 445 kts | 216° |
| 2026-05-04 10:26 | -20.61550 | -41.47782 | 40249 ft | 442 kts | 216° |
| 2026-05-04 10:26 | -20.66922 | -41.50940 | 40245 ft | 439 kts | 216° |
| 2026-05-04 10:27 | -20.72252 | -41.54080 | 40251 ft | 436 kts | 216° |
| 2026-05-04 10:27 | -20.77544 | -41.57206 | 40267 ft | 434 kts | 216° |
| 2026-05-04 10:28 | -20.82825 | -41.60322 | 40263 ft | 434 kts | 216° |
| 2026-05-04 10:28 | -20.88112 | -41.63447 | 40245 ft | 435 kts | 216° |
| 2026-05-04 10:29 | -20.93414 | -41.66580 | 40239 ft | 435 kts | 216° |
| 2026-05-04 10:29 | -20.98718 | -41.69718 | 40256 ft | 436 kts | 217° |
| 2026-05-04 10:30 | -21.04001 | -41.72848 | 40245 ft | 437 kts | 217° |
| 2026-05-04 10:30 | -21.09326 | -41.76005 | 40246 ft | 438 kts | 217° |
| 2026-05-04 10:31 | -21.14654 | -41.79164 | 40235 ft | 438 kts | 217° |
| 2026-05-04 10:32 | -21.33317 | -41.90245 | 40235 ft | 438 kts | 217° |
| 2026-05-04 10:33 | -21.38648 | -41.93415 | 40228 ft | 438 kts | 217° |
| 2026-05-04 10:33 | -21.43977 | -41.96587 | 40241 ft | 438 kts | 217° |
| 2026-05-04 10:34 | -21.48408 | -41.99226 | 40226 ft | 438 kts | 217° |
| 2026-05-04 10:34 | -21.54590 | -42.02912 | 40236 ft | 437 kts | 217° |
| 2026-05-04 10:35 | -21.59901 | -42.06081 | 40232 ft | 437 kts | 217° |
| 2026-05-04 10:35 | -21.64311 | -42.08714 | 40239 ft | 437 kts | 217° |
| 2026-05-04 10:36 | -21.69617 | -42.11887 | 40234 ft | 436 kts | 217° |
| 2026-05-04 10:36 | -21.74915 | -42.15057 | 40240 ft | 436 kts | 217° |
| 2026-05-04 10:37 | -21.80205 | -42.18225 | 40221 ft | 434 kts | 218° |
| 2026-05-04 10:37 | -21.85555 | -42.21244 | 40245 ft | 439 kts | 211° |
| 2026-05-04 10:39 | -22.05635 | -42.30033 | 40248 ft | 445 kts | 211° |
| 2026-05-04 10:40 | -22.11361 | -42.32567 | 40255 ft | 445 kts | 211° |
| 2026-05-04 10:40 | -22.17039 | -42.35079 | 40256 ft | 443 kts | 211° |
| 2026-05-04 10:41 | -22.22740 | -42.37602 | 40255 ft | 443 kts | 211° |
| 2026-05-04 10:41 | -22.28435 | -42.40129 | 40264 ft | 442 kts | 211° |
| 2026-05-04 10:42 | -22.34132 | -42.42645 | 40255 ft | 442 kts | 211° |
| 2026-05-04 10:42 | -22.39821 | -42.45158 | 40250 ft | 442 kts | 211° |
| 2026-05-04 10:43 | -22.45497 | -42.47669 | 40280 ft | 441 kts | 211° |
| 2026-05-04 10:45 | -22.68192 | -42.57739 | 40247 ft | 442 kts | 211° |
| 2026-05-04 10:45 | -22.73887 | -42.60266 | 40232 ft | 443 kts | 211° |
| 2026-05-04 10:46 | -22.79399 | -42.63094 | 40219 ft | 429 kts | 223° |
| 2026-05-04 10:46 | -22.83739 | -42.67360 | 40230 ft | 416 kts | 236° |
| 2026-05-04 10:47 | -22.86926 | -42.72518 | 40237 ft | 412 kts | 243° |
| 2026-05-04 10:47 | -22.89993 | -42.77787 | 40228 ft | 414 kts | 242° |
| 2026-05-04 10:49 | -23.04271 | -42.97507 | 40218 ft | 422 kts | 232° |
| 2026-05-04 10:50 | -23.08382 | -43.02044 | 40218 ft | 421 kts | 232° |
| 2026-05-04 10:52 | -23.24669 | -43.20151 | 40219 ft | 418 kts | 232° |
| 2026-05-04 10:52 | -23.28727 | -43.24673 | 40218 ft | 417 kts | 232° |
| 2026-05-04 10:54 | -23.44669 | -43.42948 | 40217 ft | 417 kts | 233° |
| 2026-05-04 10:56 | -23.60740 | -43.61232 | 40211 ft | 418 kts | 232° |
| 2026-05-04 10:57 | -23.64789 | -43.65778 | 40207 ft | 418 kts | 231° |
| 2026-05-04 10:57 | -23.68921 | -43.70193 | 40212 ft | 419 kts | 231° |
| 2026-05-04 10:58 | -23.73090 | -43.74627 | 40208 ft | 419 kts | 231° |
| 2026-05-04 10:58 | -23.77245 | -43.79075 | 40211 ft | 418 kts | 231° |
| 2026-05-04 10:59 | -23.81395 | -43.83536 | 40197 ft | 418 kts | 231° |
| 2026-05-04 10:59 | -23.85531 | -43.87987 | 40240 ft | 418 kts | 231° |
| 2026-05-04 11:00 | -23.89677 | -43.92454 | 40213 ft | 418 kts | 231° |
| 2026-05-04 11:02 | -24.06221 | -44.10317 | 40209 ft | 419 kts | 231° |
| 2026-05-04 11:05 | -24.37233 | -44.44010 | 40194 ft | 419 kts | 231° |
| 2026-05-04 11:06 | -24.41363 | -44.48515 | 40190 ft | 419 kts | 231° |
| 2026-05-04 11:06 | -24.45490 | -44.53023 | 40194 ft | 418 kts | 231° |
| 2026-05-04 11:10 | -24.73943 | -44.84745 | 40200 ft | 416 kts | 231° |
| 2026-05-04 11:12 | -24.90099 | -45.02904 | 40203 ft | 415 kts | 231° |
| 2026-05-04 11:12 | -24.94132 | -45.07448 | 40207 ft | 415 kts | 231° |
| 2026-05-04 11:13 | -24.98165 | -45.11997 | 40204 ft | 415 kts | 231° |
| 2026-05-04 11:13 | -25.02194 | -45.16546 | 40204 ft | 415 kts | 231° |
| 2026-05-04 11:14 | -25.02845 | -45.17282 | 40204 ft | 415 kts | 231° |
| 2026-05-04 11:16 | -25.22306 | -45.39324 | 40212 ft | 415 kts | 230° |
| 2026-05-04 11:16 | -25.26334 | -45.43900 | 40209 ft | 415 kts | 230° |
| 2026-05-04 11:17 | -25.30360 | -45.48477 | 40207 ft | 415 kts | 230° |
| 2026-05-04 11:19 | -25.46393 | -45.66756 | 40197 ft | 414 kts | 230° |
| 2026-05-04 11:19 | -25.50394 | -45.71328 | 40192 ft | 413 kts | 230° |
| 2026-05-04 11:20 | -25.54394 | -45.75905 | 40210 ft | 413 kts | 230° |
| 2026-05-04 11:20 | -25.58389 | -45.80481 | 40219 ft | 413 kts | 230° |
| 2026-05-04 11:22 | -25.74331 | -45.98785 | 40205 ft | 412 kts | 230° |
| 2026-05-04 11:23 | -25.78304 | -46.03359 | 40201 ft | 412 kts | 230° |
| 2026-05-04 11:25 | -25.92165 | -46.19356 | 40208 ft | 411 kts | 230° |
| 2026-05-04 11:25 | -25.96128 | -46.23940 | 40206 ft | 411 kts | 230° |
| 2026-05-04 11:27 | -26.13940 | -46.44606 | 40207 ft | 411 kts | 230° |
| 2026-05-04 11:28 | -26.17895 | -46.49207 | 40208 ft | 411 kts | 230° |
| 2026-05-04 11:28 | -26.21849 | -46.53812 | 40208 ft | 411 kts | 230° |
| 2026-05-04 11:29 | -26.25801 | -46.58420 | 40218 ft | 411 kts | 230° |
| 2026-05-04 11:29 | -26.29749 | -46.63028 | 40203 ft | 411 kts | 230° |
| 2026-05-04 11:33 | -26.57199 | -46.95186 | 40202 ft | 408 kts | 230° |
| 2026-05-04 11:33 | -26.61104 | -46.99785 | 40209 ft | 408 kts | 230° |
| 2026-05-04 11:34 | -26.64975 | -47.04415 | 40204 ft | 408 kts | 230° |
| 2026-05-04 11:34 | -26.68843 | -47.09055 | 40203 ft | 407 kts | 230° |
| 2026-05-04 11:35 | -26.72709 | -47.13686 | 40213 ft | 408 kts | 230° |
| 2026-05-04 11:35 | -26.76570 | -47.18273 | 40201 ft | 408 kts | 230° |
| 2026-05-04 11:36 | -26.80460 | -47.22888 | 40194 ft | 407 kts | 230° |
| 2026-05-04 11:36 | -26.84343 | -47.27508 | 40194 ft | 407 kts | 230° |
| 2026-05-04 11:37 | -26.88223 | -47.32128 | 40189 ft | 407 kts | 230° |
| 2026-05-04 11:37 | -26.91444 | -47.35976 | 40197 ft | 407 kts | 230° |
| 2026-05-04 11:38 | -26.95309 | -47.40610 | 40197 ft | 407 kts | 230° |
| 2026-05-04 11:38 | -26.99172 | -47.45247 | 40191 ft | 407 kts | 230° |
| 2026-05-04 11:39 | -27.03038 | -47.49892 | 40187 ft | 407 kts | 230° |
| 2026-05-04 11:41 | -27.16551 | -47.66166 | 40199 ft | 408 kts | 230° |
| 2026-05-04 11:41 | -27.20412 | -47.70827 | 40193 ft | 407 kts | 230° |
| 2026-05-04 11:42 | -27.24273 | -47.75493 | 40190 ft | 407 kts | 230° |
| 2026-05-04 11:42 | -27.28123 | -47.80151 | 40187 ft | 407 kts | 230° |
| 2026-05-04 11:43 | -27.31951 | -47.84788 | 40185 ft | 407 kts | 230° |
| 2026-05-04 11:43 | -27.35798 | -47.89454 | 40189 ft | 407 kts | 230° |
| 2026-05-04 11:44 | -27.39642 | -47.94121 | 40188 ft | 406 kts | 230° |
| 2026-05-04 11:44 | -27.43467 | -47.98803 | 40189 ft | 406 kts | 231° |
| 2026-05-04 11:45 | -27.47290 | -48.03497 | 40182 ft | 406 kts | 231° |
| 2026-05-04 11:45 | -27.51108 | -48.08187 | 40185 ft | 406 kts | 231° |
| 2026-05-04 11:46 | -27.54924 | -48.12878 | 40198 ft | 407 kts | 231° |
| 2026-05-04 11:46 | -27.58749 | -48.17586 | 40196 ft | 407 kts | 231° |
| 2026-05-04 11:47 | -27.62569 | -48.22292 | 40188 ft | 407 kts | 231° |
| 2026-05-04 11:47 | -27.66362 | -48.26970 | 40176 ft | 407 kts | 231° |
| 2026-05-04 11:48 | -27.70178 | -48.31680 | 40189 ft | 407 kts | 231° |
| 2026-05-04 11:48 | -27.73993 | -48.36391 | 40190 ft | 406 kts | 231° |
| 2026-05-04 11:49 | -27.77809 | -48.41108 | 40191 ft | 406 kts | 231° |
| 2026-05-04 11:49 | -27.81619 | -48.45824 | 40186 ft | 406 kts | 231° |
| 2026-05-04 11:50 | -27.85426 | -48.50542 | 40189 ft | 406 kts | 231° |
| 2026-05-04 11:50 | -27.89230 | -48.55262 | 40188 ft | 406 kts | 231° |
| 2026-05-04 11:51 | -27.93032 | -48.59985 | 40212 ft | 406 kts | 231° |
| 2026-05-04 11:51 | -27.96836 | -48.64716 | 40190 ft | 407 kts | 231° |
| 2026-05-04 11:52 | -28.00624 | -48.69432 | 40173 ft | 408 kts | 231° |
| 2026-05-04 11:52 | -28.04441 | -48.74188 | 40164 ft | 408 kts | 231° |
| 2026-05-04 11:53 | -28.08245 | -48.78936 | 40166 ft | 407 kts | 231° |
| 2026-05-04 11:53 | -28.12042 | -48.83680 | 40161 ft | 406 kts | 231° |
| 2026-05-04 11:55 | -28.27127 | -49.02641 | 40151 ft | 405 kts | 231° |
| 2026-05-04 11:56 | -28.30920 | -49.07381 | 40157 ft | 406 kts | 230° |
| 2026-05-04 11:56 | -28.34748 | -49.12089 | 40173 ft | 406 kts | 230° |
| 2026-05-04 11:57 | -28.38570 | -49.16812 | 40147 ft | 406 kts | 230° |
| 2026-05-04 11:57 | -28.42379 | -49.21532 | 40158 ft | 405 kts | 230° |
| 2026-05-04 11:58 | -28.46188 | -49.26256 | 40161 ft | 405 kts | 230° |
| 2026-05-04 11:58 | -28.49991 | -49.30998 | 40163 ft | 406 kts | 230° |
| 2026-05-04 11:59 | -28.53793 | -49.35749 | 40147 ft | 406 kts | 230° |
| 2026-05-04 11:59 | -28.57564 | -49.40467 | 40156 ft | 405 kts | 230° |
| 2026-05-04 12:00 | -28.61358 | -49.45218 | 40153 ft | 406 kts | 231° |
| 2026-05-04 12:00 | -28.65154 | -49.49977 | 40156 ft | 406 kts | 231° |
| 2026-05-04 12:01 | -28.68949 | -49.54742 | 40149 ft | 406 kts | 231° |
| 2026-05-04 12:02 | -28.82227 | -49.71455 | 40147 ft | 407 kts | 231° |
| 2026-05-04 12:03 | -28.86019 | -49.76240 | 40160 ft | 406 kts | 231° |
| 2026-05-04 12:03 | -28.89779 | -49.80990 | 40158 ft | 406 kts | 231° |
| 2026-05-04 12:04 | -28.93641 | -49.85698 | 40153 ft | 407 kts | 229° |
| 2026-05-04 12:04 | -28.97566 | -49.90344 | 40151 ft | 407 kts | 229° |
| 2026-05-04 12:05 | -29.01492 | -49.95003 | 40157 ft | 407 kts | 229° |
| 2026-05-04 12:05 | -29.05403 | -49.99674 | 40159 ft | 407 kts | 229° |
| 2026-05-04 12:06 | -29.09309 | -50.04353 | 40151 ft | 407 kts | 229° |
| 2026-05-04 12:06 | -29.13207 | -50.09030 | 40161 ft | 407 kts | 229° |
| 2026-05-04 12:07 | -29.17113 | -50.13721 | 40172 ft | 407 kts | 229° |
| 2026-05-04 12:07 | -29.21013 | -50.18411 | 40153 ft | 406 kts | 229° |
| 2026-05-04 12:08 | -29.24880 | -50.23065 | 40145 ft | 406 kts | 229° |
| 2026-05-04 12:08 | -29.28766 | -50.27748 | 40146 ft | 405 kts | 229° |
| 2026-05-04 12:09 | -29.32649 | -50.32433 | 40165 ft | 405 kts | 229° |
| 2026-05-04 12:09 | -29.36518 | -50.37107 | 40166 ft | 404 kts | 229° |
| 2026-05-04 12:10 | -29.40386 | -50.41786 | 40150 ft | 404 kts | 229° |
| 2026-05-04 12:10 | -29.44255 | -50.46472 | 40146 ft | 404 kts | 229° |
| 2026-05-04 12:11 | -29.48119 | -50.51157 | 40145 ft | 404 kts | 229° |
| 2026-05-04 12:11 | -29.51983 | -50.55848 | 40132 ft | 404 kts | 230° |
| 2026-05-04 12:12 | -29.55775 | -50.60559 | 40123 ft | 405 kts | 230° |
| 2026-05-04 12:12 | -29.59549 | -50.65367 | 40129 ft | 405 kts | 231° |
| 2026-05-04 12:14 | -29.74666 | -50.84604 | 40114 ft | 405 kts | 230° |
| 2026-05-04 12:15 | -29.78443 | -50.89418 | 40101 ft | 405 kts | 231° |
| 2026-05-04 12:15 | -29.82215 | -50.94232 | 40110 ft | 405 kts | 231° |
| 2026-05-04 12:16 | -29.85961 | -50.99019 | 40108 ft | 405 kts | 231° |
| 2026-05-04 12:16 | -29.89724 | -51.03834 | 40100 ft | 405 kts | 231° |
| 2026-05-04 12:17 | -29.93491 | -51.08660 | 40105 ft | 405 kts | 231° |
| 2026-05-04 12:17 | -29.97247 | -51.13492 | 40102 ft | 404 kts | 232° |
| 2026-05-04 12:18 | -30.00490 | -51.18748 | 40107 ft | 402 kts | 240° |
| 2026-05-04 12:18 | -30.03090 | -51.24441 | 40108 ft | 401 kts | 244° |
| 2026-05-04 12:19 | -30.05570 | -51.30217 | 40104 ft | 401 kts | 244° |
| 2026-05-04 12:19 | -30.08051 | -51.35991 | 40109 ft | 402 kts | 244° |
| 2026-05-04 12:20 | -30.10522 | -51.41728 | 40111 ft | 402 kts | 244° |
| 2026-05-04 12:20 | -30.13011 | -51.47502 | 40109 ft | 402 kts | 244° |
| 2026-05-04 12:21 | -30.15500 | -51.53283 | 40112 ft | 402 kts | 244° |
| 2026-05-04 12:21 | -30.17978 | -51.59047 | 40121 ft | 402 kts | 244° |
| 2026-05-04 12:22 | -30.20465 | -51.64841 | 40113 ft | 402 kts | 244° |
| 2026-05-04 12:22 | -30.22929 | -51.70591 | 40110 ft | 402 kts | 244° |
| 2026-05-04 12:23 | -30.25404 | -51.76377 | 40112 ft | 401 kts | 244° |
| 2026-05-04 12:23 | -30.27876 | -51.82161 | 40107 ft | 401 kts | 244° |
| 2026-05-04 12:24 | -30.30241 | -51.87706 | 40113 ft | 400 kts | 244° |
| 2026-05-04 12:24 | -30.32700 | -51.93479 | 40106 ft | 400 kts | 244° |
| 2026-05-04 12:25 | -30.35154 | -51.99249 | 40107 ft | 399 kts | 244° |
| 2026-05-04 12:25 | -30.37600 | -52.05012 | 40111 ft | 399 kts | 244° |
| 2026-05-04 12:26 | -30.40043 | -52.10774 | 40106 ft | 399 kts | 244° |
| 2026-05-04 12:26 | -30.42446 | -52.16448 | 40108 ft | 398 kts | 244° |
| 2026-05-04 12:27 | -30.44888 | -52.22254 | 40109 ft | 398 kts | 244° |
| 2026-05-04 12:27 | -30.47301 | -52.28034 | 40099 ft | 398 kts | 244° |
| 2026-05-04 12:28 | -30.49711 | -52.33805 | 40104 ft | 398 kts | 244° |
| 2026-05-04 12:28 | -30.52124 | -52.39580 | 40100 ft | 398 kts | 244° |
| 2026-05-04 12:29 | -30.54552 | -52.45349 | 40102 ft | 397 kts | 244° |
| 2026-05-04 12:29 | -30.56975 | -52.51113 | 40102 ft | 398 kts | 244° |
| 2026-05-04 12:30 | -30.59393 | -52.56882 | 40103 ft | 398 kts | 244° |
| 2026-05-04 12:30 | -30.61793 | -52.62618 | 40105 ft | 398 kts | 245° |
| 2026-05-04 12:31 | -30.64206 | -52.68393 | 40105 ft | 398 kts | 245° |
| 2026-05-04 12:31 | -30.66617 | -52.74172 | 40103 ft | 397 kts | 245° |
| 2026-05-04 12:32 | -30.70228 | -52.82842 | 40109 ft | 397 kts | 245° |
| 2026-05-04 12:33 | -30.72642 | -52.88616 | 40106 ft | 397 kts | 245° |
| 2026-05-04 12:33 | -30.75053 | -52.94387 | 40109 ft | 397 kts | 245° |
| 2026-05-04 12:34 | -30.77460 | -53.00163 | 40101 ft | 397 kts | 245° |
| 2026-05-04 12:34 | -30.79844 | -53.05896 | 40107 ft | 396 kts | 245° |
| 2026-05-04 12:35 | -30.82240 | -53.11664 | 40110 ft | 396 kts | 245° |
| 2026-05-04 12:35 | -30.84632 | -53.17433 | 40106 ft | 396 kts | 245° |
| 2026-05-04 12:36 | -30.87023 | -53.23208 | 40113 ft | 396 kts | 245° |
| 2026-05-04 12:36 | -30.89407 | -53.28977 | 40113 ft | 396 kts | 245° |
| 2026-05-04 12:37 | -30.91785 | -53.34753 | 40106 ft | 395 kts | 245° |
| 2026-05-04 12:37 | -30.94161 | -53.40535 | 40109 ft | 395 kts | 245° |
| 2026-05-04 12:38 | -30.96532 | -53.46314 | 40112 ft | 395 kts | 245° |
| 2026-05-04 12:38 | -30.98884 | -53.52057 | 40101 ft | 395 kts | 245° |
| 2026-05-04 12:39 | -31.01248 | -53.57838 | 40098 ft | 395 kts | 245° |
| 2026-05-04 12:39 | -31.03609 | -53.63620 | 40108 ft | 395 kts | 245° |
| 2026-05-04 12:40 | -31.05969 | -53.69407 | 40101 ft | 395 kts | 245° |
| 2026-05-04 12:40 | -31.08326 | -53.75197 | 40091 ft | 395 kts | 245° |
| 2026-05-04 12:41 | -31.10679 | -53.80988 | 40103 ft | 395 kts | 245° |
| 2026-05-04 12:41 | -31.13030 | -53.86782 | 40092 ft | 395 kts | 245° |
| 2026-05-04 12:42 | -31.15364 | -53.92542 | 40077 ft | 395 kts | 245° |
| 2026-05-04 12:42 | -31.17710 | -53.98342 | 40072 ft | 395 kts | 246° |
| 2026-05-04 12:43 | -31.20055 | -54.04149 | 40065 ft | 395 kts | 246° |
| 2026-05-04 12:43 | -31.22015 | -54.09010 | 40061 ft | 395 kts | 246° |
| 2026-05-04 12:44 | -31.24353 | -54.14818 | 40056 ft | 395 kts | 246° |
| 2026-05-04 12:44 | -31.26673 | -54.20590 | 40057 ft | 395 kts | 246° |
| 2026-05-04 12:45 | -31.29007 | -54.26405 | 40066 ft | 395 kts | 246° |
| 2026-05-04 12:45 | -31.31338 | -54.32223 | 40066 ft | 395 kts | 246° |
| 2026-05-04 12:46 | -31.33667 | -54.38046 | 40083 ft | 395 kts | 246° |
| 2026-05-04 12:46 | -31.35989 | -54.43861 | 40087 ft | 395 kts | 246° |
| 2026-05-04 12:47 | -31.38310 | -54.49681 | 40086 ft | 394 kts | 246° |
| 2026-05-04 12:47 | -31.40625 | -54.55496 | 40091 ft | 394 kts | 246° |
| 2026-05-04 12:48 | -31.43079 | -54.61227 | 40086 ft | 395 kts | 240° |
| 2026-05-04 12:48 | -31.46310 | -54.66403 | 40092 ft | 397 kts | 234° |
| 2026-05-04 12:49 | -31.50185 | -54.71061 | 40098 ft | 401 kts | 227° |
| 2026-05-04 12:49 | -31.54323 | -54.75468 | 40092 ft | 402 kts | 227° |
| 2026-05-04 12:50 | -31.58458 | -54.79870 | 40087 ft | 401 kts | 227° |
| 2026-05-04 12:50 | -31.62574 | -54.84288 | 40091 ft | 401 kts | 227° |
| 2026-05-04 12:51 | -31.66679 | -54.88717 | 40096 ft | 401 kts | 228° |
| 2026-05-04 12:51 | -31.70765 | -54.93136 | 40094 ft | 401 kts | 228° |
| 2026-05-04 12:52 | -31.74859 | -54.97571 | 40088 ft | 401 kts | 228° |
| 2026-05-04 12:52 | -31.78960 | -55.02019 | 40099 ft | 401 kts | 228° |
| 2026-05-04 12:53 | -31.83058 | -55.06469 | 40089 ft | 401 kts | 228° |
| 2026-05-04 12:53 | -31.87157 | -55.10924 | 40088 ft | 401 kts | 228° |
| 2026-05-04 12:54 | -31.91243 | -55.15371 | 40089 ft | 400 kts | 228° |
| 2026-05-04 12:54 | -31.95332 | -55.19828 | 40091 ft | 400 kts | 228° |
| 2026-05-04 12:55 | -31.99416 | -55.24286 | 40093 ft | 401 kts | 228° |
| 2026-05-04 12:55 | -32.03500 | -55.28748 | 40097 ft | 401 kts | 228° |
| 2026-05-04 12:56 | -32.07588 | -55.33221 | 40089 ft | 401 kts | 228° |
| 2026-05-04 12:56 | -32.11677 | -55.37701 | 40089 ft | 401 kts | 228° |
| 2026-05-04 12:57 | -32.15760 | -55.42179 | 40085 ft | 401 kts | 228° |
| 2026-05-04 12:57 | -32.19809 | -55.46626 | 40088 ft | 400 kts | 228° |
| 2026-05-04 12:58 | -32.23912 | -55.51138 | 40086 ft | 400 kts | 228° |
| 2026-05-04 12:58 | -32.27962 | -55.55598 | 40089 ft | 400 kts | 228° |
| 2026-05-04 12:59 | -32.32031 | -55.60084 | 40104 ft | 400 kts | 228° |
| 2026-05-04 12:59 | -32.36105 | -55.64582 | 40077 ft | 401 kts | 228° |
| 2026-05-04 13:00 | -32.40179 | -55.69085 | 40073 ft | 401 kts | 228° |
| 2026-05-04 13:00 | -32.44251 | -55.73592 | 40074 ft | 401 kts | 228° |
| 2026-05-04 13:01 | -32.48323 | -55.78105 | 40066 ft | 401 kts | 228° |
| 2026-05-04 13:01 | -32.52397 | -55.82626 | 40074 ft | 401 kts | 228° |
| 2026-05-04 13:02 | -32.56466 | -55.87146 | 40074 ft | 401 kts | 228° |
| 2026-05-04 13:02 | -32.60531 | -55.91670 | 40068 ft | 401 kts | 228° |
| 2026-05-04 13:03 | -32.64595 | -55.96198 | 40069 ft | 400 kts | 228° |
| 2026-05-04 13:03 | -32.68600 | -56.00666 | 40076 ft | 401 kts | 229° |
| 2026-05-04 13:04 | -32.72667 | -56.05209 | 40075 ft | 402 kts | 229° |
| 2026-05-04 13:04 | -32.76735 | -56.09758 | 40070 ft | 402 kts | 229° |
| 2026-05-04 13:05 | -32.80806 | -56.14318 | 40059 ft | 402 kts | 229° |
| 2026-05-04 13:05 | -32.84881 | -56.18887 | 40058 ft | 402 kts | 229° |
| 2026-05-04 13:06 | -32.88949 | -56.23457 | 40061 ft | 402 kts | 229° |
| 2026-05-04 13:06 | -32.93015 | -56.28030 | 40060 ft | 402 kts | 229° |
| 2026-05-04 13:07 | -32.97081 | -56.32607 | 40060 ft | 402 kts | 229° |
| 2026-05-04 13:07 | -33.01143 | -56.37196 | 40082 ft | 403 kts | 229° |
| 2026-05-04 13:08 | -33.05202 | -56.41802 | 40063 ft | 403 kts | 229° |
| 2026-05-04 13:08 | -33.09266 | -56.46421 | 40059 ft | 403 kts | 229° |
| 2026-05-04 13:08 | -33.11297 | -56.48730 | 39617 ft | 404 kts | 229° |
| 2026-05-04 13:09 | -33.13316 | -56.51026 | 39165 ft | 398 kts | 229° |
| 2026-05-04 13:09 | -33.15306 | -56.53289 | 38706 ft | 393 kts | 229° |
| 2026-05-04 13:09 | -33.17272 | -56.55527 | 38157 ft | 388 kts | 229° |
| 2026-05-04 13:09 | -33.19188 | -56.57710 | 37677 ft | 384 kts | 229° |
| 2026-05-04 13:10 | -33.21109 | -56.59895 | 37189 ft | 379 kts | 229° |
| 2026-05-04 13:10 | -33.23004 | -56.62052 | 36737 ft | 375 kts | 229° |
| 2026-05-04 13:10 | -33.24878 | -56.64188 | 36292 ft | 370 kts | 229° |
| 2026-05-04 13:10 | -33.26731 | -56.66303 | 35841 ft | 367 kts | 229° |
| 2026-05-04 13:11 | -33.28568 | -56.68400 | 35404 ft | 364 kts | 229° |
| 2026-05-04 13:11 | -33.30388 | -56.70480 | 34961 ft | 361 kts | 229° |
| 2026-05-04 13:11 | -33.32198 | -56.72550 | 34519 ft | 358 kts | 229° |
| 2026-05-04 13:11 | -33.33993 | -56.74605 | 34113 ft | 356 kts | 229° |
| 2026-05-04 13:12 | -33.35777 | -56.76647 | 33614 ft | 354 kts | 229° |
| 2026-05-04 13:12 | -33.37549 | -56.78678 | 33147 ft | 351 kts | 229° |
| 2026-05-04 13:12 | -33.39306 | -56.80692 | 32685 ft | 349 kts | 229° |
| 2026-05-04 13:12 | -33.41049 | -56.82692 | 32258 ft | 346 kts | 229° |
| 2026-05-04 13:13 | -33.42778 | -56.84675 | 31847 ft | 343 kts | 229° |
| 2026-05-04 13:13 | -33.44495 | -56.86646 | 31404 ft | 341 kts | 229° |
| 2026-05-04 13:13 | -33.46181 | -56.88584 | 30979 ft | 339 kts | 229° |
| 2026-05-04 13:13 | -33.47877 | -56.90534 | 30554 ft | 337 kts | 228° |
| 2026-05-04 13:14 | -33.49562 | -56.92473 | 30139 ft | 336 kts | 228° |
| 2026-05-04 13:14 | -33.51243 | -56.94407 | 29638 ft | 334 kts | 228° |
| 2026-05-04 13:14 | -33.52916 | -56.96334 | 29160 ft | 333 kts | 229° |
| 2026-05-04 13:14 | -33.54581 | -56.98251 | 28707 ft | 330 kts | 229° |
| 2026-05-04 13:15 | -33.56254 | -57.00179 | 28265 ft | 328 kts | 229° |
| 2026-05-04 13:15 | -33.57893 | -57.02069 | 27834 ft | 326 kts | 229° |
| 2026-05-04 13:15 | -33.59499 | -57.03923 | 27419 ft | 324 kts | 229° |
| 2026-05-04 13:15 | -33.61116 | -57.05790 | 26996 ft | 322 kts | 229° |
| 2026-05-04 13:16 | -33.62724 | -57.07647 | 26602 ft | 320 kts | 229° |
| 2026-05-04 13:16 | -33.64321 | -57.09493 | 26201 ft | 318 kts | 229° |
| 2026-05-04 13:16 | -33.65908 | -57.11330 | 25808 ft | 316 kts | 229° |
| 2026-05-04 13:16 | -33.67487 | -57.13157 | 25426 ft | 314 kts | 229° |
| 2026-05-04 13:17 | -33.69053 | -57.14970 | 25037 ft | 313 kts | 229° |
| 2026-05-04 13:17 | -33.70617 | -57.16782 | 24640 ft | 311 kts | 229° |
| 2026-05-04 13:17 | -33.72169 | -57.18581 | 24255 ft | 310 kts | 229° |
| 2026-05-04 13:17 | -33.73721 | -57.20381 | 23872 ft | 309 kts | 229° |
| 2026-05-04 13:18 | -33.75262 | -57.22170 | 23477 ft | 307 kts | 229° |
| 2026-05-04 13:18 | -33.76795 | -57.23949 | 23044 ft | 305 kts | 229° |
| 2026-05-04 13:18 | -33.78316 | -57.25716 | 22648 ft | 303 kts | 230° |
| 2026-05-04 13:18 | -33.79823 | -57.27467 | 22263 ft | 300 kts | 230° |
| 2026-05-04 13:19 | -33.81317 | -57.29204 | 21887 ft | 297 kts | 230° |
| 2026-05-04 13:19 | -33.82798 | -57.30927 | 21511 ft | 295 kts | 230° |
| 2026-05-04 13:19 | -33.84266 | -57.32636 | 21152 ft | 293 kts | 230° |
| 2026-05-04 13:19 | -33.85706 | -57.34314 | 20797 ft | 291 kts | 230° |
| 2026-05-04 13:20 | -33.87153 | -57.35999 | 20443 ft | 289 kts | 230° |
| 2026-05-04 13:20 | -33.88593 | -57.37677 | 20077 ft | 287 kts | 230° |
| 2026-05-04 13:20 | -33.90025 | -57.39347 | 19717 ft | 286 kts | 230° |
| 2026-05-04 13:20 | -33.91451 | -57.41010 | 19364 ft | 285 kts | 230° |
| 2026-05-04 13:21 | -33.92872 | -57.42666 | 19020 ft | 284 kts | 230° |
| 2026-05-04 13:21 | -33.94286 | -57.44316 | 18656 ft | 283 kts | 230° |
| 2026-05-04 13:21 | -33.95695 | -57.45963 | 18300 ft | 282 kts | 230° |
| 2026-05-04 13:21 | -33.97102 | -57.47608 | 17893 ft | 281 kts | 230° |
| 2026-05-04 13:22 | -33.98502 | -57.49245 | 17516 ft | 280 kts | 230° |
| 2026-05-04 13:22 | -33.99901 | -57.50882 | 17152 ft | 281 kts | 230° |
| 2026-05-04 13:22 | -34.01320 | -57.52546 | 16803 ft | 289 kts | 230° |
| 2026-05-04 13:22 | -34.02761 | -57.54238 | 16456 ft | 296 kts | 229° |
| 2026-05-04 13:23 | -34.04237 | -57.55968 | 16065 ft | 296 kts | 229° |
| 2026-05-04 13:23 | -34.05710 | -57.57693 | 15678 ft | 294 kts | 229° |
| 2026-05-04 13:23 | -34.07174 | -57.59409 | 15308 ft | 292 kts | 229° |
| 2026-05-04 13:23 | -34.08628 | -57.61113 | 14929 ft | 291 kts | 228° |
| 2026-05-04 13:24 | -34.10072 | -57.62808 | 14578 ft | 289 kts | 228° |
| 2026-05-04 13:24 | -34.11508 | -57.64494 | 14211 ft | 287 kts | 228° |
| 2026-05-04 13:24 | -34.12933 | -57.66170 | 13869 ft | 286 kts | 227° |
| 2026-05-04 13:25 | -34.15767 | -57.69501 | 13126 ft | 282 kts | 227° |
| 2026-05-04 13:25 | -34.17169 | -57.71152 | 12756 ft | 281 kts | 227° |
| 2026-05-04 13:25 | -34.18562 | -57.72791 | 12420 ft | 279 kts | 227° |
| 2026-05-04 13:25 | -34.19943 | -57.74418 | 12082 ft | 277 kts | 227° |
| 2026-05-04 13:26 | -34.21319 | -57.76040 | 11747 ft | 275 kts | 227° |
| 2026-05-04 13:26 | -34.22684 | -57.77650 | 11423 ft | 274 kts | 227° |
| 2026-05-04 13:26 | -34.24025 | -57.79232 | 11097 ft | 273 kts | 227° |
| 2026-05-04 13:26 | -34.25395 | -57.80850 | 10786 ft | 272 kts | 227° |
| 2026-05-04 13:27 | -34.26748 | -57.82448 | 10458 ft | 271 kts | 226° |
| 2026-05-04 13:27 | -34.28070 | -57.84010 | 10213 ft | 267 kts | 226° |
| 2026-05-04 13:27 | -34.29381 | -57.85558 | 10080 ft | 259 kts | 226° |
| 2026-05-04 13:27 | -34.30666 | -57.87078 | 9826 ft | 260 kts | 226° |
| 2026-05-04 13:28 | -34.31972 | -57.88625 | 9524 ft | 266 kts | 226° |
| 2026-05-04 13:28 | -34.33312 | -57.90212 | 9226 ft | 271 kts | 227° |
| 2026-05-04 13:28 | -34.34662 | -57.91811 | 8919 ft | 271 kts | 227° |
| 2026-05-04 13:28 | -34.36007 | -57.93404 | 8604 ft | 270 kts | 227° |
| 2026-05-04 13:29 | -34.37343 | -57.94987 | 8295 ft | 268 kts | 227° |
| 2026-05-04 13:29 | -34.38670 | -57.96560 | 7986 ft | 266 kts | 227° |
| 2026-05-04 13:29 | -34.39991 | -57.98127 | 7696 ft | 265 kts | 228° |
| 2026-05-04 13:29 | -34.41303 | -57.99684 | 7405 ft | 263 kts | 228° |
| 2026-05-04 13:30 | -34.42662 | -58.01170 | 7097 ft | 263 kts | 223° |
| 2026-05-04 13:30 | -34.44089 | -58.02558 | 6829 ft | 263 kts | 222° |
| 2026-05-04 13:30 | -34.45520 | -58.03928 | 6530 ft | 262 kts | 222° |
| 2026-05-04 13:30 | -34.46947 | -58.05299 | 6237 ft | 261 kts | 223° |
| 2026-05-04 13:31 | -34.48365 | -58.06670 | 5925 ft | 260 kts | 223° |
| 2026-05-04 13:31 | -34.49757 | -58.08022 | 5642 ft | 261 kts | 223° |
| 2026-05-04 13:31 | -34.51178 | -58.09408 | 5356 ft | 263 kts | 223° |
| 2026-05-04 13:31 | -34.52607 | -58.10804 | 5066 ft | 263 kts | 223° |
| 2026-05-04 13:32 | -34.54029 | -58.12194 | 4783 ft | 262 kts | 223° |
| 2026-05-04 13:32 | -34.55445 | -58.13581 | 4499 ft | 260 kts | 223° |
| 2026-05-04 13:32 | -34.56833 | -58.14940 | 4359 ft | 253 kts | 223° |
| 2026-05-04 13:32 | -34.58181 | -58.16260 | 4248 ft | 245 kts | 223° |
| 2026-05-04 13:33 | -34.59491 | -58.17544 | 4078 ft | 240 kts | 223° |
| 2026-05-04 13:33 | -34.60787 | -58.18818 | 3807 ft | 239 kts | 223° |
| 2026-05-04 13:33 | -34.62058 | -58.20065 | 3686 ft | 230 kts | 223° |
| 2026-05-04 13:33 | -34.63281 | -58.21264 | 3568 ft | 222 kts | 223° |
| 2026-05-04 13:34 | -34.64420 | -58.22482 | 3310 ft | 212 kts | 236° |
| 2026-05-04 13:34 | -34.64914 | -58.24062 | 3147 ft | 194 kts | 271° |
| 2026-05-04 13:34 | -34.64706 | -58.25623 | 3088 ft | 186 kts | 290° |
| 2026-05-04 13:34 | -34.64084 | -58.27023 | 2726 ft | 190 kts | 303° |
| 2026-05-04 13:35 | -34.63338 | -58.28351 | 2449 ft | 190 kts | 305° |
| 2026-05-04 13:35 | -34.62003 | -58.30715 | 2195 ft | 150 kts | 304° |
| 2026-05-04 13:35 | -34.61431 | -58.31734 | 1821 ft | 139 kts | 304° |
| 2026-05-04 13:36 | -34.60919 | -58.32639 | 1625 ft | 122 kts | 305° |
| 2026-05-04 13:36 | -34.60458 | -58.33460 | 1445 ft | 115 kts | 305° |
| 2026-05-04 13:36 | -34.60016 | -58.34249 | 1338 ft | 116 kts | 306° |
| 2026-05-04 13:36 | -34.59553 | -58.35075 | 1164 ft | 119 kts | 306° |
| 2026-05-04 13:37 | -34.59087 | -58.35908 | 973 ft | 120 kts | 305° |
| 2026-05-04 13:37 | -34.58604 | -58.36758 | 782 ft | 124 kts | 305° |
| 2026-05-04 13:37 | -34.58127 | -58.37627 | 691 ft | 122 kts | 306° |
| 2026-05-04 13:37 | -34.57815 | -58.38194 | 629 ft | 124 kts | 306° |
| 2026-05-04 13:38 | -34.57175 | -58.39332 | 313 ft | 120 kts | 306° |
| 2026-05-04 13:38 | -34.56704 | -58.40180 | 154 ft | 122 kts | 304° |
| 2026-05-04 13:38 | -34.56232 | -58.41033 | 34 ft | 119 kts | 305° |
| 2026-05-04 13:38 | -34.55833 | -58.41742 | 29 ft | 81 kts | 304° |
| 2026-05-04 13:39 | -34.55605 | -58.42151 | 31 ft | 37 kts | 304° |
| 2026-05-04 13:39 | -34.55542 | -58.42267 | 32 ft | 6 kts | 304° |
| 2026-05-04 13:39 | -34.55510 | -58.42325 | 32 ft | 9 kts | 304° |
| 2026-05-04 13:39 | -34.55474 | -58.42389 | 31 ft | 9 kts | 304° |
| 2026-05-04 13:40 | -34.55439 | -58.42450 | 31 ft | 8 kts | 304° |
| 2026-05-04 13:40 | -34.55414 | -58.42489 | 30 ft | 5 kts | 319° |
| 2026-05-04 13:40 | -34.55390 | -58.42495 | 30 ft | 0 kts | 357° |
| 2026-05-04 13:40 | -34.55389 | -58.42495 | 30 ft | 1 kts | 352° |
| 2026-05-04 13:41 | -34.55385 | -58.42498 | 30 ft | 1 kts | 334° |
| 2026-05-04 13:41 | -34.55379 | -58.42510 | 30 ft | 2 kts | 296° |
| 2026-05-04 13:41 | -34.55380 | -58.42524 | 30 ft | 1 kts | 256° |
| 2026-05-04 13:42 | -34.55383 | -58.42529 | 30 ft | 0 kts | 238° |
| 2026-05-04 13:42 | -34.55388 | -58.42533 | 30 ft | 1 kts | 219° |
| 2026-05-04 13:42 | -34.55390 | -58.42534 | 30 ft | 0 kts | 212° |
| 2026-05-04 13:42 | -34.55394 | -58.42535 | 30 ft | 1 kts | 199° |
| 2026-05-04 13:43 | -34.55401 | -58.42534 | 30 ft | 1 kts | 175° |
| 2026-05-04 13:43 | -34.55410 | -58.42524 | 30 ft | 3 kts | 132° |
| 2026-05-04 13:43 | -34.55435 | -58.42457 | 30 ft | 18 kts | 118° |
| 2026-05-04 13:43 | -34.55506 | -58.42324 | 32 ft | 19 kts | 123° |
| 2026-05-04 13:44 | -34.55579 | -58.42193 | 31 ft | 19 kts | 124° |
| 2026-05-04 13:44 | -34.55653 | -58.42065 | 31 ft | 18 kts | 125° |
| 2026-05-04 13:44 | -34.55710 | -58.41961 | 29 ft | 5 kts | 123° |
| 2026-05-04 13:44 | -34.55707 | -58.41922 | 28 ft | 5 kts | 58° |
| 2026-05-04 13:45 | -34.55686 | -58.41898 | 30 ft | 4 kts | 33° |
| 2026-05-04 13:45 | -34.55663 | -58.41881 | 30 ft | 4 kts | 34° |
| 2026-05-04 13:45 | -34.55641 | -58.41862 | 30 ft | 4 kts | 36° |
| 2026-05-04 13:45 | -34.55619 | -58.41844 | 30 ft | 4 kts | 26° |
| 2026-05-04 13:46 | -34.55592 | -58.41850 | 30 ft | 4 kts | 334° |
| 2026-05-04 13:46 | -34.55565 | -58.41862 | 30 ft | 4 kts | 351° |
| 2026-05-04 13:46 | -34.55539 | -58.41847 | 30 ft | 4 kts | 43° |
| 2026-05-04 13:46 | -34.55526 | -58.41813 | 30 ft | 4 kts | 70° |
| 2026-05-04 13:47 | -34.55515 | -58.41778 | 30 ft | 4 kts | 70° |
| 2026-05-04 13:47 | -34.55510 | -58.41760 | 30 ft | 0 kts | 69° |